createdAt,value
2018-07-04T00:04:56.887Z,17.40
2018-07-04T00:07:42.303Z,17.10
2018-07-04T00:10:27.795Z,16.60
2018-07-04T00:13:13.053Z,16.30
2018-07-04T00:15:58.501Z,16.80
2018-07-04T00:18:43.915Z,17.10
2018-07-04T00:21:29.345Z,17.20
2018-07-04T00:24:15.107Z,17.20
2018-07-04T00:27:00.609Z,17.20
2018-07-04T00:29:46.006Z,17.30
2018-07-04T00:32:31.288Z,17.30
2018-07-04T00:35:16.735Z,17.60
2018-07-04T00:38:02.164Z,17.30
2018-07-04T00:40:47.710Z,17.00
2018-07-04T00:43:33.013Z,16.60
2018-07-04T00:46:18.576Z,16.40
2018-07-04T00:49:03.971Z,16.50
2018-07-04T00:51:49.486Z,16.40
2018-07-04T00:54:34.901Z,16.50
2018-07-04T00:57:20.304Z,16.70
2018-07-04T01:00:05.727Z,16.90
2018-07-04T01:02:50.969Z,16.60
2018-07-04T01:05:36.459Z,16.40
2018-07-04T01:08:21.982Z,16.20
2018-07-04T01:11:07.461Z,16.10
2018-07-04T01:13:53.246Z,16.10
2018-07-04T01:16:38.744Z,16.30
2018-07-04T01:19:24.237Z,16.50
2018-07-04T01:22:09.498Z,16.50
2018-07-04T01:24:54.787Z,16.40
2018-07-04T01:27:40.163Z,16.30
2018-07-04T01:30:25.654Z,16.00
2018-07-04T01:33:10.901Z,16.10
2018-07-04T01:35:56.291Z,16.00
2018-07-04T01:38:41.745Z,15.50
2018-07-04T01:41:27.365Z,15.10
2018-07-04T01:44:12.748Z,15.40
2018-07-04T01:46:58.019Z,14.90
2018-07-04T01:49:43.429Z,15.10
2018-07-04T01:52:28.753Z,15.50
2018-07-04T01:57:53.742Z,15.50
2018-07-04T02:00:39.145Z,15.60
2018-07-04T02:03:24.770Z,15.70
2018-07-04T02:06:10.074Z,15.20
2018-07-04T02:08:55.457Z,14.90
2018-07-04T02:11:41.094Z,14.60
2018-07-04T02:14:26.309Z,14.50
2018-07-04T02:17:12.315Z,14.90
2018-07-04T02:22:37.153Z,15.20
2018-07-04T02:25:22.684Z,14.70
2018-07-04T02:28:08.017Z,14.30
2018-07-04T02:30:53.380Z,14.10
2018-07-04T02:33:38.825Z,14.00
2018-07-04T02:36:24.290Z,14.10
2018-07-04T02:41:49.823Z,13.90
2018-07-04T02:44:35.307Z,13.70
2018-07-04T02:47:26.909Z,13.90
2018-07-04T02:50:12.232Z,14.30
2018-07-04T02:52:57.538Z,14.70
2018-07-04T02:55:42.962Z,14.90
2018-07-04T02:58:28.358Z,15.50
2018-07-04T03:01:13.703Z,15.60
2018-07-04T03:03:59.116Z,15.50
2018-07-04T03:06:44.951Z,15.00
2018-07-04T03:09:30.174Z,15.10
2018-07-04T03:12:15.546Z,15.10
2018-07-04T03:15:00.899Z,15.00
2018-07-04T03:17:46.202Z,15.30
2018-07-04T03:23:11.246Z,15.70
2018-07-04T03:25:56.727Z,15.60
2018-07-04T03:28:42.200Z,15.40
2018-07-04T03:31:27.628Z,15.00
2018-07-04T03:34:12.840Z,14.80
2018-07-04T03:36:58.375Z,15.20
2018-07-04T03:39:43.801Z,15.00
2018-07-04T03:42:29.266Z,15.20
2018-07-04T03:45:14.672Z,14.70
2018-07-04T03:48:00.146Z,15.00
2018-07-04T03:50:45.315Z,15.40
2018-07-04T03:53:31.233Z,15.20
2018-07-04T03:56:16.776Z,15.00
2018-07-04T03:59:02.155Z,15.20
2018-07-04T04:01:47.477Z,15.00
2018-07-04T04:04:32.960Z,15.00
2018-07-04T04:07:18.459Z,15.20
2018-07-04T04:10:03.763Z,15.00
2018-07-04T04:12:49.046Z,14.80
2018-07-04T04:15:34.517Z,14.30
2018-07-04T04:18:19.842Z,14.80
2018-07-04T04:21:05.111Z,15.20
2018-07-04T04:23:50.602Z,15.10
2018-07-04T04:29:15.365Z,14.90
2018-07-04T04:32:00.855Z,14.60
2018-07-04T04:34:46.328Z,14.60
2018-07-04T04:37:31.642Z,15.10
2018-07-04T04:40:17.074Z,15.30
2018-07-04T04:43:02.121Z,15.20
2018-07-04T04:45:47.673Z,15.00
2018-07-04T04:48:33.158Z,14.20
2018-07-04T04:51:18.623Z,14.70
2018-07-04T04:54:04.205Z,15.30
2018-07-04T04:56:50.116Z,15.20
2018-07-04T04:59:35.484Z,15.30
2018-07-04T05:02:20.656Z,15.50
2018-07-04T05:05:06.025Z,15.80
2018-07-04T05:07:51.567Z,15.70
2018-07-04T05:10:36.838Z,15.60
2018-07-04T05:13:22.258Z,15.90
2018-07-04T05:16:07.577Z,16.20
2018-07-04T05:18:52.902Z,16.20
2018-07-04T05:21:38.553Z,16.30
2018-07-04T05:24:24.132Z,16.20
2018-07-04T05:27:09.544Z,16.10
2018-07-04T05:32:34.307Z,16.10
2018-07-04T05:35:19.683Z,16.30
2018-07-04T05:38:05.170Z,16.00
2018-07-04T05:40:50.510Z,15.80
2018-07-04T05:43:35.812Z,16.10
2018-07-04T05:46:21.262Z,16.40
2018-07-04T05:49:06.527Z,16.40
2018-07-04T05:54:31.522Z,16.40
2018-07-04T05:57:17.020Z,16.60
2018-07-04T06:00:02.472Z,16.60
2018-07-04T06:02:47.782Z,16.50
2018-07-04T06:08:25.072Z,16.70
2018-07-04T06:11:10.453Z,16.90
2018-07-04T06:13:55.932Z,16.90
2018-07-04T06:16:41.238Z,16.80
2018-07-04T06:19:26.976Z,17.30
2018-07-04T06:22:12.374Z,17.40
2018-07-04T06:24:57.872Z,17.00
2018-07-04T06:27:43.258Z,17.10
2018-07-04T06:30:28.599Z,17.00
2018-07-04T06:33:14.023Z,17.50
2018-07-04T06:35:59.392Z,17.60
2018-07-04T06:38:32.238Z,17.30
2018-07-04T06:40:58.816Z,17.50
2018-07-04T06:43:25.458Z,17.70
2018-07-04T06:50:46.294Z,17.90
2018-07-04T06:53:12.925Z,18.00
2018-07-04T07:00:33.661Z,18.00
2018-07-04T07:03:12.833Z,18.00
2018-07-04T07:05:58.209Z,17.90
2018-07-04T07:08:43.483Z,18.10
2018-07-04T07:11:28.761Z,18.20
2018-07-04T07:14:14.242Z,18.10
2018-07-04T07:16:59.418Z,18.10
2018-07-04T07:19:44.799Z,18.30
2018-07-04T07:22:30.272Z,18.30
2018-07-04T07:25:15.737Z,18.40
2018-07-04T07:28:01.360Z,18.50
2018-07-04T07:30:46.658Z,18.50
2018-07-04T07:33:31.987Z,18.30
2018-07-04T07:36:17.446Z,18.40
2018-07-04T07:39:03.355Z,18.60
2018-07-04T07:47:07.955Z,18.30
2018-07-04T07:49:53.588Z,18.40
2018-07-04T07:52:39.245Z,18.80
2018-07-04T07:55:24.667Z,18.90
2018-07-04T07:58:10.692Z,19.00
2018-07-04T08:03:35.236Z,19.10
2018-07-04T08:11:39.532Z,19.30
2018-07-04T08:14:25.100Z,19.00
2018-07-04T08:22:29.647Z,19.00
2018-07-04T08:25:14.986Z,19.30
2018-07-04T08:28:00.393Z,19.40
2018-07-04T08:30:45.730Z,19.70
2018-07-04T08:33:31.275Z,19.80
2018-07-04T08:36:16.779Z,20.00
2018-07-04T08:41:41.550Z,20.20
2018-07-04T08:44:26.964Z,20.20
2018-07-04T08:47:12.475Z,20.20
2018-07-04T08:49:57.816Z,20.40
2018-07-04T08:52:43.395Z,20.30
2018-07-04T08:55:28.708Z,20.30
2018-07-04T08:58:14.096Z,20.30
2018-07-04T09:00:59.440Z,20.60
2018-07-04T09:03:44.948Z,20.50
2018-07-04T09:06:30.164Z,20.60
2018-07-04T09:09:15.601Z,20.70
2018-07-04T09:12:01.092Z,20.60
2018-07-04T09:14:46.474Z,20.60
2018-07-04T09:17:31.951Z,20.80
2018-07-04T09:20:17.230Z,20.80
2018-07-04T09:23:02.689Z,20.70
2018-07-04T09:25:48.095Z,20.90
2018-07-04T09:28:33.533Z,21.00
2018-07-04T09:31:18.810Z,21.00
2018-07-04T09:34:04.267Z,21.10
2018-07-04T09:36:49.810Z,21.30
2018-07-04T09:42:14.775Z,21.10
2018-07-04T09:45:01.182Z,21.10
2018-07-04T09:47:46.604Z,21.20
2018-07-04T09:50:32.119Z,21.20
2018-07-04T09:53:17.513Z,21.40
2018-07-04T09:56:02.806Z,21.30
2018-07-04T09:58:48.361Z,21.60
2018-07-04T10:01:33.774Z,21.60
2018-07-04T10:04:19.142Z,21.60
2018-07-04T10:07:04.603Z,21.60
2018-07-04T10:09:49.903Z,21.80
2018-07-04T10:12:35.465Z,22.30
2018-07-04T10:15:20.809Z,22.30
2018-07-04T10:18:06.309Z,22.20
2018-07-04T10:20:51.676Z,22.20
2018-07-04T10:23:37.119Z,21.90
2018-07-04T10:26:22.526Z,22.10
2018-07-04T10:29:07.650Z,22.50
2018-07-04T10:31:52.991Z,22.40
2018-07-04T10:34:38.583Z,22.50
2018-07-04T10:37:23.713Z,22.50
2018-07-04T10:40:12.274Z,22.40
2018-07-04T10:42:57.557Z,22.50
2018-07-04T10:45:42.825Z,22.70
2018-07-04T10:48:31.426Z,22.40
2018-07-04T10:51:16.858Z,22.60
2018-07-04T10:54:02.387Z,22.80
2018-07-04T10:56:47.926Z,22.70
2018-07-04T10:59:33.300Z,23.00
2018-07-04T11:02:18.788Z,23.10
2018-07-04T11:07:43.436Z,23.20
2018-07-04T11:10:28.961Z,23.30
2018-07-04T11:13:14.440Z,23.40
2018-07-04T11:15:59.783Z,23.50
2018-07-04T11:18:45.423Z,23.30
2018-07-04T11:21:30.831Z,23.30
2018-07-04T11:24:16.121Z,23.30
2018-07-04T11:27:01.546Z,23.60
2018-07-04T11:29:47.129Z,23.60
2018-07-04T11:32:32.602Z,23.70
2018-07-04T11:35:18.002Z,23.60
2018-07-04T11:38:03.247Z,23.70
2018-07-04T11:40:48.848Z,23.80
2018-07-04T11:43:34.050Z,23.70
2018-07-04T11:46:06.990Z,23.80
2018-07-04T11:48:33.569Z,24.10
2018-07-04T11:51:00.190Z,23.90
2018-07-04T11:53:26.788Z,23.90
2018-07-04T11:55:53.410Z,24.00
2018-07-04T11:58:20.135Z,24.00
2018-07-04T12:00:46.746Z,24.30
2018-07-04T12:03:14.354Z,24.50
2018-07-04T12:08:20.716Z,24.50
2018-07-04T12:10:47.808Z,24.30
2018-07-04T12:13:14.701Z,24.40
2018-07-04T12:15:41.273Z,24.50
2018-07-04T12:18:07.907Z,24.60
2018-07-04T12:20:34.490Z,24.60
2018-07-04T12:23:01.127Z,24.70
2018-07-04T12:25:27.727Z,24.50
2018-07-04T12:27:54.581Z,24.50
2018-07-04T12:30:21.509Z,24.50
2018-07-04T12:32:48.128Z,24.80
2018-07-04T12:35:14.727Z,24.80
2018-07-04T12:37:41.387Z,25.00
2018-07-04T12:40:07.973Z,25.10
2018-07-04T12:42:34.594Z,25.30
2018-07-04T12:45:01.848Z,25.40
2018-07-04T12:47:28.746Z,25.40
2018-07-04T12:49:55.287Z,25.40
2018-07-04T12:52:21.898Z,25.50
2018-07-04T12:54:52.691Z,25.60
2018-07-04T13:00:17.804Z,25.60
2018-07-04T13:05:43.956Z,25.80
2018-07-04T13:08:29.218Z,25.80
2018-07-04T13:11:14.673Z,25.60
2018-07-04T13:14:00.187Z,25.30
2018-07-04T13:16:45.470Z,25.60
2018-07-04T13:19:30.753Z,25.30
2018-07-04T13:22:16.108Z,25.80
2018-07-04T13:25:01.512Z,26.10
2018-07-04T13:27:46.850Z,26.00
2018-07-04T13:33:11.781Z,26.10
2018-07-04T13:38:36.683Z,26.70
2018-07-04T13:41:22.174Z,26.90
2018-07-04T13:46:47.137Z,26.80
2018-07-04T13:49:32.906Z,26.70
2018-07-04T13:52:18.151Z,26.70
2018-07-04T13:55:03.475Z,26.90
2018-07-04T13:57:48.992Z,26.80
2018-07-04T14:00:34.490Z,27.20
2018-07-04T14:03:19.882Z,27.50
2018-07-04T14:06:05.086Z,27.70
2018-07-04T14:08:50.520Z,28.00
2018-07-04T14:11:35.893Z,27.70
2018-07-04T14:14:21.364Z,27.80
2018-07-04T14:17:06.589Z,28.10
2018-07-04T14:19:52.078Z,27.60
2018-07-04T14:22:37.580Z,27.90
2018-07-04T14:25:22.926Z,28.30
2018-07-04T14:28:08.578Z,28.50
2018-07-04T14:30:54.315Z,28.70
2018-07-04T14:33:39.821Z,28.40
2018-07-04T14:36:25.171Z,28.40
2018-07-04T14:39:10.487Z,28.70
2018-07-04T14:41:56.022Z,29.00
2018-07-04T14:44:41.461Z,29.20
2018-07-04T14:47:26.763Z,29.80
2018-07-04T14:50:11.870Z,29.30
2018-07-04T14:52:57.007Z,29.10
2018-07-04T14:55:42.603Z,29.10
2018-07-04T14:58:28.046Z,29.50
2018-07-04T15:01:13.686Z,30.00
2018-07-04T15:03:59.326Z,30.10
2018-07-04T15:06:44.713Z,30.40
2018-07-04T15:09:30.109Z,30.00
2018-07-04T15:12:15.251Z,30.00
2018-07-04T15:15:00.702Z,30.00
2018-07-04T15:17:46.100Z,31.30
2018-07-04T15:25:51.007Z,32.80
2018-07-04T15:28:36.349Z,33.80
2018-07-04T15:31:21.812Z,33.30
2018-07-04T15:34:07.225Z,33.30
2018-07-04T15:36:52.602Z,34.00
2018-07-04T15:39:38.220Z,34.10
2018-07-04T15:42:23.587Z,34.40
2018-07-04T15:45:08.988Z,34.50
2018-07-04T15:47:54.391Z,33.30
2018-07-04T15:50:39.737Z,32.90
2018-07-04T15:53:25.088Z,33.40
2018-07-04T15:56:10.315Z,33.80
2018-07-04T15:58:55.693Z,33.80
2018-07-04T16:01:41.002Z,34.60
2018-07-04T16:04:26.393Z,35.60
2018-07-04T16:07:11.725Z,36.30
2018-07-04T16:09:57.089Z,35.30
2018-07-04T16:12:42.471Z,34.50
2018-07-04T16:15:27.614Z,34.60
2018-07-04T16:18:12.974Z,34.70
2018-07-04T16:20:58.191Z,34.50
2018-07-04T16:23:43.825Z,35.30
2018-07-04T16:26:29.253Z,35.60
2018-07-04T16:29:14.697Z,34.70
2018-07-04T16:32:00.401Z,35.70
2018-07-04T16:34:45.794Z,35.40
2018-07-04T16:37:31.304Z,34.20
2018-07-04T16:40:16.792Z,34.50
2018-07-04T16:45:41.663Z,35.00
2018-07-04T16:48:27.228Z,35.60
2018-07-04T16:51:12.568Z,35.40
2018-07-04T16:53:57.919Z,34.90
2018-07-04T16:56:43.542Z,33.00
2018-07-04T16:59:28.850Z,34.50
2018-07-04T17:02:14.174Z,34.30
2018-07-04T17:04:59.499Z,35.10
2018-07-04T17:07:45.030Z,35.60
2018-07-04T17:10:30.788Z,35.00
2018-07-04T17:13:16.138Z,36.00
2018-07-04T17:16:01.578Z,35.30
2018-07-04T17:18:47.167Z,35.70
2018-07-04T17:21:32.597Z,35.60
2018-07-04T17:24:18.003Z,34.70
2018-07-04T17:27:03.398Z,33.90
2018-07-04T17:29:48.836Z,34.90
2018-07-04T17:32:34.444Z,35.30
2018-07-04T17:37:59.518Z,34.80
2018-07-04T17:40:44.734Z,35.00
2018-07-04T17:43:30.115Z,35.40
2018-07-04T17:46:16.020Z,35.90
2018-07-04T17:49:01.496Z,36.00
2018-07-04T17:51:46.656Z,35.50
2018-07-04T17:54:32.032Z,34.90
2018-07-04T17:57:17.601Z,34.50
2018-07-04T18:00:03.057Z,34.50
2018-07-04T18:02:48.394Z,34.30
2018-07-04T18:05:33.707Z,34.40
2018-07-04T18:08:19.123Z,34.40
2018-07-04T18:13:43.929Z,34.20
2018-07-04T18:16:29.472Z,34.00
2018-07-04T18:19:14.661Z,33.00
2018-07-04T18:22:00.136Z,31.90
2018-07-04T18:24:45.536Z,31.00
2018-07-04T18:27:30.911Z,30.80
2018-07-04T18:30:16.387Z,30.90
2018-07-04T18:33:01.673Z,30.30
2018-07-04T18:35:46.791Z,29.40
2018-07-04T18:38:32.210Z,29.40
2018-07-04T18:41:17.707Z,29.70
2018-07-04T18:44:02.909Z,29.70
2018-07-04T18:46:48.376Z,30.10
2018-07-04T18:49:33.830Z,29.90
2018-07-04T18:52:19.294Z,29.90
2018-07-04T18:55:04.778Z,29.40
2018-07-04T18:57:50.200Z,29.10
2018-07-04T19:03:16.444Z,28.60
2018-07-04T19:06:01.430Z,28.40
2018-07-04T19:08:46.955Z,28.00
2018-07-04T19:11:32.477Z,27.80
2018-07-04T19:14:17.754Z,27.20
2018-07-04T19:19:43.766Z,26.60
2018-07-04T19:22:29.269Z,26.10
2018-07-04T19:25:14.711Z,25.50
2018-07-04T19:27:59.814Z,25.30
2018-07-04T19:30:45.493Z,25.20
2018-07-04T19:33:30.601Z,24.90
2018-07-04T19:36:16.841Z,24.60
2018-07-04T19:39:02.047Z,24.50
2018-07-04T19:41:47.920Z,24.30
2018-07-04T19:47:12.601Z,23.90
2018-07-04T19:49:57.956Z,24.00
2018-07-04T19:52:43.341Z,24.00
2018-07-04T19:55:28.668Z,23.80
2018-07-04T19:58:14.010Z,23.30
2018-07-04T20:00:59.544Z,23.20
2018-07-04T20:06:24.333Z,22.90
2018-07-04T20:09:09.678Z,22.80
2018-07-04T20:11:55.367Z,22.80
2018-07-04T20:17:19.971Z,22.90
2018-07-04T20:20:05.970Z,22.90
2018-07-04T20:22:51.375Z,22.70
2018-07-04T20:25:37.135Z,22.90
2018-07-04T20:28:22.650Z,23.00
2018-07-04T20:31:08.004Z,22.90
2018-07-04T20:33:54.249Z,23.00
2018-07-04T20:36:39.625Z,23.00
2018-07-04T20:39:24.869Z,22.80
2018-07-04T20:42:10.414Z,22.80
2018-07-04T20:44:55.814Z,22.60
2018-07-04T20:47:41.254Z,22.70
2018-07-04T20:50:26.385Z,22.80
2018-07-04T20:53:11.905Z,23.00
2018-07-04T20:55:57.333Z,22.80
2018-07-04T20:58:43.083Z,22.80
2018-07-04T21:01:28.433Z,22.80
2018-07-04T21:04:13.918Z,22.50
2018-07-04T21:06:59.280Z,22.40
2018-07-04T21:09:44.671Z,22.70
2018-07-04T21:12:30.050Z,22.50
2018-07-04T21:15:15.515Z,22.20
2018-07-04T21:18:00.928Z,21.50
2018-07-04T21:20:46.570Z,21.40
2018-07-04T21:23:31.862Z,21.20
2018-07-04T21:26:17.250Z,21.30
2018-07-04T21:29:02.627Z,21.10
2018-07-04T21:31:47.838Z,21.50
2018-07-04T21:34:33.508Z,21.70
2018-07-04T21:37:18.950Z,21.80
2018-07-04T21:42:44.081Z,22.10
2018-07-04T21:45:29.766Z,22.00
2018-07-04T21:48:15.140Z,22.20
2018-07-04T21:51:00.513Z,22.10
2018-07-04T21:53:46.410Z,21.90
2018-07-04T21:59:11.198Z,21.80
2018-07-04T22:01:56.686Z,21.60
2018-07-04T22:04:42.180Z,21.50
2018-07-04T22:07:27.617Z,21.20
2018-07-04T22:10:13.038Z,20.80
2018-07-04T22:12:58.452Z,20.70
2018-07-04T22:15:43.876Z,20.90
2018-07-04T22:18:29.139Z,20.40
2018-07-04T22:23:54.013Z,20.20
2018-07-04T22:26:39.539Z,20.50
2018-07-04T22:29:25.009Z,20.70
2018-07-04T22:37:30.761Z,20.60
2018-07-04T22:40:16.196Z,20.90
2018-07-04T22:43:01.564Z,20.80
2018-07-04T22:45:46.954Z,20.50
2018-07-04T22:48:32.285Z,20.90
2018-07-04T22:51:17.747Z,20.90
2018-07-04T22:56:42.650Z,20.30
2018-07-04T22:59:28.058Z,20.50
2018-07-04T23:02:13.319Z,20.50
2018-07-04T23:04:58.540Z,20.30
2018-07-04T23:07:43.866Z,20.30
2018-07-04T23:10:29.287Z,20.20
2018-07-04T23:13:14.761Z,20.10
2018-07-04T23:18:39.827Z,19.70
2018-07-04T23:21:25.074Z,19.50
2018-07-04T23:24:10.206Z,19.50
2018-07-04T23:26:55.509Z,19.40
2018-07-04T23:29:40.789Z,18.90
2018-07-04T23:32:26.123Z,18.80
2018-07-04T23:35:11.636Z,19.20
2018-07-04T23:37:57.171Z,19.40
2018-07-04T23:40:42.620Z,19.50
2018-07-04T23:43:27.984Z,19.10
2018-07-04T23:46:13.404Z,19.00
2018-07-04T23:51:38.166Z,19.00
2018-07-04T23:54:23.479Z,19.00
2018-07-04T23:59:48.435Z,19.30
